Time;durP1;ratioP1;P1;durP2;ratioP2;P2;SDS_P1;SDS_P2;PMS_P1;PMS_P2;Temp;Humidity;BMP_temperature;BMP_pressure;BME280_temperature;BME280_humidity;BME280_pressure;Samples;Min_cycle;Max_cycle;Signal;HPM_P1;HPM_P2
2021/06/23 00:00:29;;;;;;;3.53;0.50;;;14.30;84.60;;;;;;3556459;40;20126;-76
2021/06/23 00:02:56;;;;;;;3.25;0.57;;;14.30;84.70;;;;;;3565719;40;20037;-76
2021/06/23 00:05:25;;;;;;;5.85;0.60;;;14.30;85.00;;;;;;3565811;40;20041;-76
2021/06/23 00:07:51;;;;;;;4.35;0.57;;;14.30;85.00;;;;;;3556929;40;20037;-76
2021/06/23 00:10:18;;;;;;;3.95;0.57;;;14.30;85.10;;;;;;3565774;40;20085;-76
2021/06/23 00:12:45;;;;;;;8.32;1.25;;;14.30;85.20;;;;;;3556832;40;20045;-76
2021/06/23 00:15:14;;;;;;;5.38;0.50;;;14.30;85.40;;;;;;3565859;40;20037;-76
2021/06/23 00:17:41;;;;;;;3.30;0.57;;;14.30;85.60;;;;;;3565960;40;20089;-76
2021/06/23 00:20:08;;;;;;;7.28;1.70;;;14.30;86.00;;;;;;3565580;40;20068;-76
2021/06/23 00:22:34;;;;;;;9.63;1.25;;;14.30;85.80;;;;;;3556807;40;20041;-76
2021/06/23 00:25:00;;;;;;;7.38;1.13;;;14.30;86.20;;;;;;3565829;40;20323;-76
2021/06/23 00:27:26;;;;;;;5.20;0.80;;;14.30;86.30;;;;;;3565621;40;20048;-76
2021/06/23 00:29:52;;;;;;;10.70;0.85;;;14.20;86.50;;;;;;3556768;40;20045;-77
2021/06/23 00:32:20;;;;;;;3.63;1.05;;;14.20;86.90;;;;;;3565762;40;20299;-77
2021/06/23 00:34:47;;;;;;;4.00;0.85;;;14.20;87.20;;;;;;3565678;40;20316;-77
2021/06/23 00:37:13;;;;;;;11.45;1.52;;;14.20;86.50;;;;;;3565647;40;20105;-77
2021/06/23 00:39:39;;;;;;;6.07;1.05;;;14.20;87.20;;;;;;3565554;40;20095;-77
2021/06/23 00:42:08;;;;;;;5.32;0.93;;;14.20;87.30;;;;;;3565516;40;20053;-77
2021/06/23 00:44:34;;;;;;;7.78;1.30;;;14.20;86.80;;;;;;3565586;40;20041;-78
2021/06/23 00:47:01;;;;;;;4.30;1.13;;;14.20;86.40;;;;;;3556268;40;20057;-77
2021/06/23 00:49:32;;;;;;;7.18;0.77;;;14.20;86.10;;;;;;3565669;40;20072;-77
2021/06/23 00:52:00;;;;;;;4.82;0.93;;;14.20;85.90;;;;;;3565679;40;20443;-77
2021/06/23 00:54:26;;;;;;;5.63;1.02;;;14.20;86.30;;;;;;3565792;40;20057;-76
2021/06/23 00:56:52;;;;;;;3.70;1.15;;;14.20;86.00;;;;;;3556801;40;20110;-78
2021/06/23 00:59:19;;;;;;;4.57;1.08;;;14.20;86.10;;;;;;3565253;40;20077;-77
2021/06/23 01:01:45;;;;;;;2.38;0.60;;;14.20;86.40;;;;;;3565787;40;20482;-77
2021/06/23 01:04:13;;;;;;;7.32;1.23;;;14.20;86.50;;;;;;3566094;40;20045;-77
2021/06/23 01:06:40;;;;;;;4.80;0.40;;;14.20;86.80;;;;;;3565853;40;20631;-77
2021/06/23 01:09:07;;;;;;;3.30;0.60;;;14.20;87.40;;;;;;3565456;40;20045;-76
2021/06/23 01:11:40;;;;;;;3.47;0.50;;;14.10;86.40;;;;;;3565636;40;20057;-77
2021/06/23 01:14:07;;;;;;;3.45;0.63;;;14.20;86.70;;;;;;3566967;40;20041;-77
2021/06/23 01:16:40;;;;;;;8.57;0.65;;;14.20;86.80;;;;;;3567341;40;20041;-77
2021/06/23 01:19:12;;;;;;;4.78;0.70;;;14.20;86.50;;;;;;3567023;40;20041;-77
2021/06/23 01:21:38;;;;;;;6.15;1.27;;;14.20;87.00;;;;;;3565948;40;20044;-77
2021/06/23 01:24:05;;;;;;;2.78;0.70;;;14.20;87.20;;;;;;3566937;40;20134;-76
2021/06/23 01:26:31;;;;;;;4.63;0.50;;;14.20;87.50;;;;;;3567038;40;20053;-77
2021/06/23 01:28:57;;;;;;;5.32;0.30;;;14.20;87.40;;;;;;3549366;40;20144;-77
2021/06/23 01:31:23;;;;;;;3.55;0.90;;;14.20;87.50;;;;;;3566888;40;20049;-76
2021/06/23 01:33:50;;;;;;;4.30;0.85;;;14.20;87.60;;;;;;3566739;40;20072;-76
2021/06/23 01:36:16;;;;;;;4.28;0.45;;;14.20;87.60;;;;;;3566789;40;20050;-76
2021/06/23 01:38:42;;;;;;;5.78;0.88;;;14.30;87.60;;;;;;3566173;40;20123;-77
2021/06/23 01:41:08;;;;;;;4.97;0.73;;;14.20;87.60;;;;;;3555960;40;20061;-76
2021/06/23 01:43:34;;;;;;;7.35;1.10;;;14.20;87.70;;;;;;3557916;40;20307;-76
2021/06/23 01:46:00;;;;;;;3.55;0.60;;;14.20;87.70;;;;;;3557441;40;20049;-77
2021/06/23 01:48:27;;;;;;;7.53;1.10;;;14.20;87.70;;;;;;3557721;40;20134;-77
2021/06/23 01:50:54;;;;;;;7.93;1.92;;;14.20;87.90;;;;;;3557707;40;20046;-76
2021/06/23 01:53:21;;;;;;;5.40;1.02;;;14.20;88.20;;;;;;3566756;40;20053;-76
2021/06/23 01:55:48;;;;;;;5.05;0.90;;;14.20;88.30;;;;;;3566400;40;20298;-77
2021/06/23 01:58:14;;;;;;;6.32;0.82;;;14.20;88.20;;;;;;3566335;40;20087;-76
2021/06/23 02:00:41;;;;;;;8.93;1.35;;;14.20;88.10;;;;;;3566834;40;20056;-77
2021/06/23 02:03:28;;;;;;;8.27;1.23;;;14.20;88.20;;;;;;3566688;40;20045;-77
2021/06/23 02:06:05;;;;;;;1.55;0.40;;;14.20;89.90;;;;;;3557586;40;20310;-77
2021/06/23 02:08:59;;;;;;;4.03;0.85;;;14.20;89.00;;;;;;3567072;40;20738;-77
2021/06/23 02:11:40;;;;;;;3.72;0.73;;;14.20;89.30;;;;;;3567019;40;20081;-76
2021/06/23 02:14:35;;;;;;;7.90;1.13;;;14.20;89.40;;;;;;3566747;40;20308;-77
2021/06/23 02:17:03;;;;;;;8.93;1.58;;;14.10;90.90;;;;;;3566695;40;20041;-77
2021/06/23 02:19:31;;;;;;;7.45;1.15;;;14.10;89.10;;;;;;3557647;40;20049;-77
2021/06/23 02:21:58;;;;;;;3.15;0.70;;;14.10;89.30;;;;;;3566868;40;20150;-77
2021/06/23 02:24:28;;;;;;;9.23;2.05;;;14.20;89.10;;;;;;3549125;40;20038;-77
2021/06/23 02:26:54;;;;;;;4.28;0.70;;;14.10;89.10;;;;;;3566819;40;20046;-77
2021/06/23 02:29:20;;;;;;;3.45;0.80;;;14.10;89.40;;;;;;3545281;40;20041;-77
2021/06/23 02:31:49;;;;;;;5.07;0.77;;;14.20;90.00;;;;;;3557220;40;20325;-77
2021/06/23 02:34:16;;;;;;;3.88;0.57;;;14.10;89.50;;;;;;3566244;40;20051;-77
2021/06/23 02:36:42;;;;;;;6.82;0.60;;;14.10;89.70;;;;;;3566334;40;20037;-77
2021/06/23 02:39:10;;;;;;;8.93;0.85;;;14.10;89.50;;;;;;3563532;40;20238;-77
2021/06/23 02:41:36;;;;;;;4.93;0.82;;;14.10;89.40;;;;;;3556691;40;20042;-78
2021/06/23 02:44:03;;;;;;;2.95;0.47;;;14.10;89.50;;;;;;3555590;40;20042;-77
2021/06/23 02:46:29;;;;;;;4.80;0.50;;;14.10;89.50;;;;;;3565929;40;20038;-77
2021/06/23 02:48:56;;;;;;;3.28;0.75;;;14.10;90.00;;;;;;3566461;40;20053;-78
2021/06/23 02:51:24;;;;;;;6.20;0.60;;;14.10;90.00;;;;;;3566862;40;20410;-78
2021/06/23 02:53:52;;;;;;;9.43;0.98;;;14.10;90.00;;;;;;3566520;40;20105;-77
2021/06/23 02:56:19;;;;;;;2.22;0.50;;;14.10;89.90;;;;;;3566303;40;20099;-78
2021/06/23 02:58:47;;;;;;;5.97;1.10;;;14.10;90.10;;;;;;3566268;40;20057;-77
2021/06/23 03:01:14;;;;;;;6.53;1.23;;;14.10;89.60;;;;;;3566171;40;20048;-77
2021/06/23 03:03:43;;;;;;;6.45;2.00;;;14.10;90.00;;;;;;3566208;40;20328;-78
2021/06/23 03:06:10;;;;;;;4.90;0.80;;;14.10;90.00;;;;;;3566391;40;20041;-78
2021/06/23 03:08:37;;;;;;;4.18;0.65;;;14.10;90.10;;;;;;3557340;40;20037;-78
2021/06/23 03:11:04;;;;;;;5.80;0.75;;;14.10;90.10;;;;;;3557011;40;20048;-77
2021/06/23 03:13:31;;;;;;;5.72;0.73;;;14.10;90.00;;;;;;3557376;40;20033;-77
2021/06/23 03:16:03;;;;;;;3.70;0.45;;;14.10;90.00;;;;;;3549780;40;20045;-77
2021/06/23 03:18:32;;;;;;;4.20;1.13;;;14.10;90.00;;;;;;3557475;40;20057;-77
2021/06/23 03:21:03;;;;;;;7.00;0.68;;;14.10;90.10;;;;;;3566561;40;20045;-77
2021/06/23 03:23:29;;;;;;;5.28;0.60;;;14.10;90.00;;;;;;3566288;40;20240;-78
2021/06/23 03:25:55;;;;;;;4.28;1.48;;;14.10;90.00;;;;;;3557118;40;20081;-77
2021/06/23 03:28:21;;;;;;;5.90;1.15;;;14.10;90.00;;;;;;3557421;40;20037;-77
2021/06/23 03:30:47;;;;;;;6.68;1.35;;;14.10;89.80;;;;;;3566356;40;20152;-78
2021/06/23 03:33:15;;;;;;;2.80;0.55;;;14.10;89.70;;;;;;3557189;40;20131;-77
2021/06/23 03:35:41;;;;;;;4.43;0.57;;;14.10;90.00;;;;;;3566539;40;20041;-77
2021/06/23 03:38:07;;;;;;;4.95;0.73;;;14.10;90.00;;;;;;3566158;40;20079;-77
2021/06/23 03:40:33;;;;;;;4.97;1.38;;;14.10;90.10;;;;;;3556899;40;20360;-78
2021/06/23 03:43:00;;;;;;;4.22;0.68;;;14.10;90.00;;;;;;3565962;40;20060;-78
2021/06/23 03:45:25;;;;;;;3.75;0.57;;;14.10;90.10;;;;;;3566093;40;20209;-78
2021/06/23 03:47:51;;;;;;;9.23;1.20;;;14.10;90.10;;;;;;3566243;40;20138;-78
2021/06/23 03:50:18;;;;;;;3.35;0.85;;;14.10;90.20;;;;;;3565843;40;20081;-79
2021/06/23 03:52:44;;;;;;;8.40;1.35;;;14.10;90.30;;;;;;3566210;40;20737;-78
2021/06/23 03:55:20;;;;;;;1.65;0.40;;;14.10;90.30;;;;;;3566327;40;20080;-78
2021/06/23 03:57:49;;;;;;;5.50;0.70;;;14.10;90.20;;;;;;3565805;40;20041;-78
2021/06/23 04:00:16;;;;;;;9.07;0.80;;;14.10;90.50;;;;;;3556964;40;20307;-78
2021/06/23 04:02:42;;;;;;;3.63;0.47;;;14.10;90.40;;;;;;3557060;40;20061;-78
2021/06/23 04:05:10;;;;;;;3.25;0.88;;;14.10;90.40;;;;;;3565921;40;20037;-78
2021/06/23 04:07:35;;;;;;;7.45;1.73;;;14.10;90.40;;;;;;3557021;40;20313;-78
2021/06/23 04:10:02;;;;;;;3.78;0.60;;;14.10;90.40;;;;;;3565801;40;20044;-78
2021/06/23 04:12:28;;;;;;;3.67;1.15;;;14.10;90.50;;;;;;3566261;40;20072;-77
2021/06/23 04:14:54;;;;;;;1.60;0.77;;;14.10;90.60;;;;;;3556918;40;20033;-78
2021/06/23 04:17:20;;;;;;;5.43;0.77;;;14.10;90.40;;;;;;3565874;40;20307;-78
2021/06/23 04:19:47;;;;;;;7.22;1.33;;;14.00;90.50;;;;;;3565958;40;20055;-78
2021/06/23 04:22:14;;;;;;;3.75;0.68;;;14.10;90.50;;;;;;3565780;40;20131;-77
2021/06/23 04:24:39;;;;;;;6.70;0.77;;;14.10;90.50;;;;;;3566211;40;20098;-78
2021/06/23 04:27:05;;;;;;;5.53;0.55;;;14.10;90.50;;;;;;3556664;40;20131;-78
2021/06/23 04:29:33;;;;;;;6.72;0.75;;;14.10;90.50;;;;;;3555872;40;20045;-78
2021/06/23 04:31:59;;;;;;;3.15;1.13;;;14.00;90.70;;;;;;3555918;40;20049;-79
2021/06/23 04:34:25;;;;;;;2.70;0.80;;;14.00;90.60;;;;;;3555020;40;20072;-78
2021/06/23 04:36:52;;;;;;;2.75;0.75;;;14.00;90.50;;;;;;3555796;40;20037;-78
2021/06/23 04:39:18;;;;;;;4.65;1.30;;;14.00;90.70;;;;;;3555394;40;20048;-78
2021/06/23 04:41:44;;;;;;;4.10;0.60;;;14.10;90.70;;;;;;3556146;40;20128;-79
2021/06/23 04:44:10;;;;;;;5.93;1.17;;;14.10;90.90;;;;;;3555948;40;20045;-79
2021/06/23 04:46:36;;;;;;;5.63;1.10;;;14.10;91.00;;;;;;3552321;40;20038;-78
2021/06/23 04:49:03;;;;;;;8.45;1.42;;;14.10;91.00;;;;;;3558840;40;20385;-78
2021/06/23 04:51:29;;;;;;;4.43;0.75;;;14.10;91.00;;;;;;3559490;40;20026;-78
2021/06/23 04:53:55;;;;;;;7.47;0.77;;;14.10;91.00;;;;;;3549897;40;20045;-79
2021/06/23 04:56:21;;;;;;;6.22;1.33;;;14.10;91.10;;;;;;3559014;40;20247;-78
2021/06/23 04:58:47;;;;;;;6.82;1.20;;;14.10;91.20;;;;;;3547851;40;20038;-78
2021/06/23 05:01:13;;;;;;;3.95;0.90;;;14.10;91.20;;;;;;3558734;40;20045;-79
2021/06/23 05:03:39;;;;;;;7.60;1.20;;;14.10;91.40;;;;;;3549550;40;20049;-79
2021/06/23 05:06:05;;;;;;;5.40;2.00;;;14.00;91.20;;;;;;3558476;40;20673;-79
2021/06/23 05:08:31;;;;;;;9.23;1.45;;;14.00;91.40;;;;;;3558928;40;20045;-78
2021/06/23 05:10:57;;;;;;;4.38;1.05;;;14.00;91.40;;;;;;3544176;40;20181;-78
2021/06/23 05:13:24;;;;;;;6.25;1.48;;;14.00;91.40;;;;;;3558976;40;20045;-78
2021/06/23 05:15:52;;;;;;;6.55;1.52;;;14.10;91.30;;;;;;3558683;40;20042;-78
2021/06/23 05:18:18;;;;;;;5.88;0.68;;;14.10;91.40;;;;;;3558650;40;20041;-78
2021/06/23 05:20:46;;;;;;;6.18;1.52;;;14.10;91.50;;;;;;3558764;40;20042;-78
2021/06/23 05:23:12;;;;;;;5.97;1.20;;;14.10;91.90;;;;;;3558611;40;20049;-78
2021/06/23 05:25:38;;;;;;;6.85;1.77;;;14.10;92.00;;;;;;3549580;40;20037;-78
2021/06/23 05:28:04;;;;;;;7.88;1.60;;;14.10;92.00;;;;;;3558073;40;20328;-78
2021/06/23 05:30:30;;;;;;;10.20;1.52;;;14.10;92.40;;;;;;3558864;40;20042;-78
2021/06/23 05:32:56;;;;;;;10.55;1.67;;;14.10;92.30;;;;;;3558617;40;20240;-78
2021/06/23 05:35:22;;;;;;;4.55;1.25;;;14.10;92.30;;;;;;3558506;40;20336;-77
2021/06/23 05:37:48;;;;;;;8.15;1.77;;;14.10;92.50;;;;;;3558813;40;20045;-78
2021/06/23 05:40:14;;;;;;;8.38;2.40;;;14.10;92.40;;;;;;3557012;40;20133;-77
2021/06/23 05:42:40;;;;;;;8.93;1.50;;;14.10;92.40;;;;;;3557054;40;20041;-77
2021/06/23 05:45:07;;;;;;;8.95;2.30;;;14.20;92.70;;;;;;3557827;40;20597;-77
2021/06/23 05:47:33;;;;;;;5.45;1.38;;;14.20;92.50;;;;;;3557741;40;20045;-77
2021/06/23 05:49:59;;;;;;;5.15;1.50;;;14.20;92.50;;;;;;3559812;40;20050;-76
2021/06/23 05:52:25;;;;;;;9.63;1.65;;;14.20;92.50;;;;;;3541495;40;20053;-77
2021/06/23 05:54:51;;;;;;;6.63;1.70;;;14.20;92.60;;;;;;3558459;40;20048;-77
2021/06/23 05:57:17;;;;;;;6.95;1.75;;;14.20;92.50;;;;;;3558247;40;20046;-77
2021/06/23 05:59:42;;;;;;;7.95;2.63;;;14.20;92.50;;;;;;3547222;40;20045;-77
2021/06/23 06:02:08;;;;;;;8.23;3.03;;;14.20;93.00;;;;;;3555928;40;20056;-77
2021/06/23 06:04:34;;;;;;;7.32;2.05;;;14.20;92.70;;;;;;3556989;40;20540;-77
2021/06/23 06:07:01;;;;;;;14.57;2.25;;;14.20;92.90;;;;;;3555543;40;20049;-76
2021/06/23 06:09:26;;;;;;;6.10;2.28;;;14.20;92.90;;;;;;3556496;40;20045;-77
2021/06/23 06:11:52;;;;;;;6.75;2.63;;;14.20;92.80;;;;;;3555842;40;20053;-76
2021/06/23 06:14:18;;;;;;;9.02;2.15;;;14.20;92.90;;;;;;3556560;40;20244;-77
2021/06/23 06:16:44;;;;;;;12.77;3.38;;;14.30;92.90;;;;;;3556447;40;20042;-77
2021/06/23 06:19:10;;;;;;;3.95;1.73;;;14.20;93.10;;;;;;3547281;40;20063;-76
2021/06/23 06:21:36;;;;;;;5.55;1.55;;;14.30;92.80;;;;;;3556236;40;20438;-77
2021/06/23 06:24:01;;;;;;;4.60;1.63;;;14.20;92.90;;;;;;3556459;40;20057;-77
2021/06/23 06:26:29;;;;;;;8.43;2.28;;;14.30;92.80;;;;;;3546258;40;20483;-77
2021/06/23 06:28:55;;;;;;;4.95;2.10;;;14.30;92.90;;;;;;3555473;40;20332;-77
2021/06/23 06:31:21;;;;;;;6.85;2.42;;;14.30;93.00;;;;;;3556563;40;20048;-77
2021/06/23 06:33:49;;;;;;;10.05;2.20;;;14.30;93.20;;;;;;3547231;40;20123;-77
2021/06/23 06:36:15;;;;;;;7.22;2.25;;;14.30;93.00;;;;;;3556553;40;20034;-76
2021/06/23 06:38:40;;;;;;;7.03;2.33;;;14.30;93.10;;;;;;3556355;40;20135;-77
2021/06/23 06:41:06;;;;;;;11.95;1.75;;;14.30;93.00;;;;;;3547189;40;20042;-77
2021/06/23 06:43:32;;;;;;;7.88;2.03;;;14.30;92.80;;;;;;3556571;40;20046;-76
2021/06/23 06:45:58;;;;;;;7.45;1.88;;;14.30;92.90;;;;;;3556170;40;20054;-77
2021/06/23 06:48:24;;;;;;;11.10;2.63;;;14.40;93.10;;;;;;3556563;40;20038;-77
2021/06/23 06:50:50;;;;;;;8.68;1.70;;;14.40;93.00;;;;;;3547333;40;20065;-77
2021/06/23 06:53:17;;;;;;;8.02;2.50;;;14.40;92.80;;;;;;3556751;40;20072;-77
2021/06/23 06:55:43;;;;;;;8.25;2.13;;;14.40;92.80;;;;;;3539071;40;20041;-77
2021/06/23 06:58:09;;;;;;;10.93;2.13;;;14.40;93.00;;;;;;3555249;40;20044;-77
2021/06/23 07:00:37;;;;;;;8.73;1.92;;;14.40;92.90;;;;;;3556588;40;20050;-77
2021/06/23 07:03:04;;;;;;;9.07;2.83;;;14.40;93.10;;;;;;3546559;40;20052;-77
2021/06/23 07:05:31;;;;;;;6.43;1.95;;;14.40;93.50;;;;;;3540252;40;20721;-77
2021/06/23 07:08:05;;;;;;;5.18;1.63;;;14.40;93.00;;;;;;3543002;40;20046;-77
2021/06/23 07:10:40;;;;;;;9.27;2.30;;;14.40;93.10;;;;;;3540163;40;20038;-77
2021/06/23 07:13:09;;;;;;;5.47;1.40;;;14.40;93.30;;;;;;3547761;40;20053;-77
2021/06/23 07:15:45;;;;;;;7.30;1.23;;;14.40;93.10;;;;;;3536249;40;20076;-77
2021/06/23 07:18:17;;;;;;;7.10;1.27;;;14.50;93.30;;;;;;3527694;40;20045;-77
2021/06/23 07:20:46;;;;;;;7.00;1.27;;;14.50;92.80;;;;;;3557006;40;20071;-77
2021/06/23 07:23:21;;;;;;;5.65;1.48;;;14.50;93.10;;;;;;3531750;40;20325;-77
2021/06/23 07:25:48;;;;;;;8.55;1.17;;;14.50;92.90;;;;;;3547280;40;20401;-77
2021/06/23 07:28:35;;;;;;;8.48;1.90;;;14.40;92.70;;;;;;3547389;40;20350;-77
2021/06/23 07:31:07;;;;;;;7.60;1.50;;;14.40;92.90;;;;;;3547266;40;20045;-77
2021/06/23 07:33:40;;;;;;;6.18;1.60;;;14.50;93.10;;;;;;3547078;40;20066;-77
2021/06/23 07:38:53;;;;;;;7.40;1.10;;;14.50;92.90;;;;;;3546705;40;20050;-77
2021/06/23 07:41:19;;;;;;;3.10;0.52;;;14.50;92.70;;;;;;3546907;40;20418;-77
2021/06/23 07:43:45;;;;;;;7.00;1.38;;;14.50;92.80;;;;;;3546763;40;20077;-77
2021/06/23 07:46:12;;;;;;;4.78;1.83;;;14.50;92.50;;;;;;3538281;40;20436;-77
2021/06/23 07:48:40;;;;;;;6.63;0.80;;;14.50;92.30;;;;;;3556061;40;20443;-77
2021/06/23 07:51:16;;;;;;;8.02;1.67;;;14.50;92.60;;;;;;3555898;40;20394;-77
2021/06/23 08:10:10;;;;;;;4.97;0.65;;;14.60;92.10;;;;;;3554959;40;20541;-77
2021/06/23 08:15:05;;;;;;;6.47;1.33;;;14.60;91.80;;;;;;3555716;40;20047;-77
2021/06/23 08:17:31;;;;;;;6.57;1.58;;;14.60;91.90;;;;;;3556077;40;20084;-76
2021/06/23 08:19:57;;;;;;;7.40;1.27;;;14.60;92.00;;;;;;3555593;40;20038;-76
2021/06/23 08:22:23;;;;;;;3.55;0.93;;;14.60;92.20;;;;;;3538098;40;20455;-76
2021/06/23 08:24:51;;;;;;;9.45;1.85;;;14.70;92.40;;;;;;3555813;40;20120;-76
2021/06/23 08:27:19;;;;;;;7.65;1.13;;;14.70;91.80;;;;;;3547021;40;20336;-77
2021/06/23 08:29:45;;;;;;;7.88;0.98;;;14.70;91.80;;;;;;3555776;40;20037;-77
2021/06/23 08:32:12;;;;;;;10.15;2.10;;;14.70;92.00;;;;;;3538269;40;20060;-77
2021/06/23 08:34:43;;;;;;;10.43;1.27;;;14.70;92.00;;;;;;3555548;40;20042;-77
2021/06/23 08:37:10;;;;;;;3.50;0.88;;;14.70;92.00;;;;;;3554724;40;20069;-76
2021/06/23 08:39:36;;;;;;;7.65;1.17;;;14.70;91.50;;;;;;3546689;40;20353;-76
2021/06/23 08:42:02;;;;;;;5.32;0.60;;;14.70;91.80;;;;;;3546388;40;20044;-77
2021/06/23 08:44:28;;;;;;;9.77;0.90;;;14.70;91.70;;;;;;3555040;40;20053;-76
2021/06/23 08:47:00;;;;;;;7.28;1.25;;;14.70;91.90;;;;;;3555335;40;20045;-76
2021/06/23 08:49:27;;;;;;;3.05;0.82;;;14.70;91.40;;;;;;3556011;40;20075;-76
2021/06/23 08:51:55;;;;;;;3.92;0.52;;;14.70;91.80;;;;;;3554657;40;20038;-76
2021/06/23 08:54:21;;;;;;;5.22;0.50;;;14.70;91.40;;;;;;3555866;40;20361;-77
2021/06/23 08:56:47;;;;;;;6.38;0.82;;;14.70;91.40;;;;;;3555712;40;20041;-76
2021/06/23 08:59:13;;;;;;;4.95;0.90;;;14.70;91.30;;;;;;3555365;40;20049;-77
2021/06/23 09:01:42;;;;;;;4.80;0.93;;;14.70;91.70;;;;;;3546447;40;20348;-77
2021/06/23 09:04:14;;;;;;;4.30;0.70;;;14.70;91.30;;;;;;3555556;40;20042;-76
2021/06/23 09:06:55;;;;;;;4.75;0.85;;;14.80;91.40;;;;;;3554476;40;20037;-77
2021/06/23 09:09:26;;;;;;;5.90;0.73;;;14.80;91.10;;;;;;3546697;40;20870;-77
2021/06/23 09:11:58;;;;;;;8.35;1.08;;;14.80;91.20;;;;;;3555339;40;20065;-77
2021/06/23 09:14:27;;;;;;;7.18;1.02;;;14.90;91.30;;;;;;3555506;40;20038;-76
2021/06/23 09:17:04;;;;;;;4.28;1.10;;;14.90;91.20;;;;;;3555289;40;20041;-76
2021/06/23 09:19:40;;;;;;;7.45;0.70;;;14.90;90.80;;;;;;3555693;40;20292;-77
2021/06/23 09:22:45;;;;;;;2.97;0.90;;;14.90;91.20;;;;;;3537472;40;20038;-77
2021/06/23 09:25:10;;;;;;;10.23;1.13;;;15.00;91.00;;;;;;3553631;40;20041;-77
2021/06/23 09:27:49;;;;;;;5.57;0.88;;;15.00;90.70;;;;;;3546450;40;20057;-77
2021/06/23 09:30:37;;;;;;;6.47;0.85;;;15.00;90.70;;;;;;3555449;40;20045;-77
2021/06/23 09:33:27;;;;;;;5.13;0.75;;;15.00;90.30;;;;;;3555507;40;20042;-77
2021/06/23 09:35:56;;;;;;;4.18;0.40;;;15.00;90.50;;;;;;3555020;40;20042;-77
2021/06/23 09:38:45;;;;;;;4.47;0.75;;;15.00;90.20;;;;;;3557129;40;20387;-77
2021/06/23 09:41:27;;;;;;;2.83;0.50;;;15.00;90.40;;;;;;3556452;40;20049;-77
2021/06/23 09:43:59;;;;;;;5.03;0.73;;;15.00;90.60;;;;;;3547473;40;20041;-77
2021/06/23 09:46:29;;;;;;;6.97;1.13;;;15.00;90.70;;;;;;3556648;40;20057;-77
2021/06/23 09:49:10;;;;;;;3.22;0.57;;;15.00;90.80;;;;;;3547605;40;20038;-77
2021/06/23 09:51:59;;;;;;;4.63;0.88;;;15.00;90.70;;;;;;3555741;40;20041;-76
2021/06/23 09:54:31;;;;;;;8.07;1.50;;;15.10;90.70;;;;;;3556209;40;20048;-77
2021/06/23 09:57:06;;;;;;;8.23;1.13;;;15.10;90.80;;;;;;3553476;40;20046;-77
2021/06/23 09:59:38;;;;;;;1.50;0.52;;;15.10;90.90;;;;;;3556621;40;20249;-77
2021/06/23 10:02:23;;;;;;;4.95;1.25;;;15.10;90.70;;;;;;3547121;40;20104;-78
2021/06/23 10:04:49;;;;;;;6.35;0.60;;;15.10;90.60;;;;;;3556777;40;20038;-77
2021/06/23 10:07:36;;;;;;;8.73;1.05;;;15.20;90.80;;;;;;3556390;40;20038;-77
2021/06/23 10:10:03;;;;;;;5.13;0.60;;;15.30;90.30;;;;;;3556443;40;20038;-78
2021/06/23 10:12:30;;;;;;;5.47;0.60;;;15.30;90.70;;;;;;3556701;40;20049;-77
2021/06/23 10:14:55;;;;;;;8.40;0.60;;;15.40;90.40;;;;;;3556409;40;20157;-78
2021/06/23 10:17:22;;;;;;;5.32;0.90;;;15.40;90.40;;;;;;3547490;40;20265;-77
2021/06/23 10:19:49;;;;;;;4.38;0.98;;;15.30;90.60;;;;;;3547498;40;20046;-76
2021/06/23 10:22:16;;;;;;;3.53;1.48;;;15.40;90.40;;;;;;3555306;40;20474;-77
2021/06/23 10:24:44;;;;;;;3.58;0.50;;;15.30;90.40;;;;;;3547746;40;20057;-77
2021/06/23 10:27:11;;;;;;;3.70;0.63;;;15.40;90.40;;;;;;3547123;40;20233;-76
2021/06/23 10:29:39;;;;;;;9.63;1.23;;;15.40;90.60;;;;;;3553634;40;20041;-77
2021/06/23 10:32:07;;;;;;;4.18;0.60;;;15.40;90.50;;;;;;3556367;40;20054;-76
2021/06/23 10:34:33;;;;;;;6.25;1.15;;;15.40;90.00;;;;;;3556556;40;20351;-77
2021/06/23 10:36:59;;;;;;;3.38;0.60;;;15.40;90.40;;;;;;3556475;40;20046;-77
2021/06/23 10:39:31;;;;;;;7.88;0.50;;;15.40;90.50;;;;;;3556859;40;20052;-77
2021/06/23 10:42:03;;;;;;;3.90;0.50;;;15.40;90.30;;;;;;3556363;40;20050;-77
2021/06/23 10:44:47;;;;;;;8.23;0.50;;;15.50;90.40;;;;;;3556302;40;20038;-77
2021/06/23 10:47:28;;;;;;;7.18;1.38;;;15.50;90.00;;;;;;3556506;40;20037;-77
2021/06/23 10:49:57;;;;;;;6.22;0.90;;;15.50;90.10;;;;;;3556113;40;20042;-77
2021/06/23 10:52:24;;;;;;;6.10;0.77;;;15.50;90.10;;;;;;3556577;40;20061;-76
2021/06/23 10:54:57;;;;;;;6.07;0.70;;;15.50;90.10;;;;;;3556317;40;20041;-77
2021/06/23 10:57:36;;;;;;;7.97;1.30;;;15.50;89.30;;;;;;3547698;40;20081;-76
2021/06/23 11:00:04;;;;;;;9.35;1.10;;;15.40;89.30;;;;;;3556186;40;20103;-76
2021/06/23 11:02:41;;;;;;;6.13;0.50;;;15.40;89.90;;;;;;3556372;40;20038;-76
2021/06/23 11:05:53;;;;;;;6.28;1.20;;;15.40;90.10;;;;;;3548024;40;20033;-77
2021/06/23 11:08:30;;;;;;;3.95;0.63;;;15.50;89.10;;;;;;3554003;40;20045;-77
2021/06/23 11:11:07;;;;;;;5.40;0.50;;;15.50;90.00;;;;;;3546817;40;20044;-77
2021/06/23 11:13:38;;;;;;;5.78;1.35;;;15.60;90.10;;;;;;3556337;40;20049;-76
2021/06/23 11:16:06;;;;;;;7.90;1.05;;;15.60;90.00;;;;;;3556129;40;20329;-77
2021/06/23 11:18:38;;;;;;;9.18;1.27;;;15.70;90.10;;;;;;3547031;40;20061;-76
2021/06/23 11:21:07;;;;;;;4.40;0.88;;;15.70;90.00;;;;;;3556023;40;20334;-76
2021/06/23 11:23:47;;;;;;;7.55;1.67;;;15.70;90.10;;;;;;3556191;40;20046;-76
2021/06/23 11:26:19;;;;;;;5.20;0.70;;;15.70;89.30;;;;;;3553383;40;20053;-76
2021/06/23 11:28:50;;;;;;;3.13;0.47;;;15.70;90.10;;;;;;3556348;40;20034;-77
2021/06/23 11:31:39;;;;;;;4.93;0.60;;;15.70;90.30;;;;;;3556483;40;20042;-77
2021/06/23 11:34:05;;;;;;;6.80;0.70;;;15.70;90.10;;;;;;3546785;40;20030;-77
2021/06/23 11:36:31;;;;;;;4.90;0.77;;;15.70;89.80;;;;;;3556089;40;20069;-77
2021/06/23 11:38:57;;;;;;;4.65;0.95;;;15.70;90.40;;;;;;3544925;40;20558;-77
2021/06/23 11:41:24;;;;;;;4.57;0.75;;;15.70;90.30;;;;;;3555511;40;20057;-77
2021/06/23 11:43:50;;;;;;;6.07;0.60;;;15.90;90.40;;;;;;3546896;40;20097;-76
2021/06/23 11:46:16;;;;;;;5.93;1.20;;;15.90;90.30;;;;;;3555213;40;20052;-76
2021/06/23 11:48:42;;;;;;;2.22;0.90;;;15.90;90.00;;;;;;3556158;40;20053;-76
2021/06/23 11:51:10;;;;;;;5.05;1.00;;;16.00;89.80;;;;;;3554713;40;20078;-77
2021/06/23 11:53:36;;;;;;;6.50;1.08;;;16.10;89.40;;;;;;3547510;40;20333;-76
2021/06/23 11:56:03;;;;;;;4.63;0.68;;;16.10;89.80;;;;;;3555574;40;20046;-77
2021/06/23 11:58:29;;;;;;;3.22;0.70;;;16.00;88.80;;;;;;3555789;40;20050;-77
2021/06/23 12:00:55;;;;;;;9.02;0.93;;;16.00;88.80;;;;;;3555076;40;20460;-77
2021/06/23 12:03:21;;;;;;;11.00;0.90;;;16.00;89.50;;;;;;3555514;40;20119;-76
2021/06/23 12:05:48;;;;;;;4.47;0.75;;;16.00;89.00;;;;;;3556031;40;20511;-77
2021/06/23 12:08:15;;;;;;;7.82;0.68;;;16.00;89.60;;;;;;3554641;40;20167;-76
2021/06/23 12:10:42;;;;;;;5.68;0.85;;;16.10;89.60;;;;;;3555976;40;20042;-77
2021/06/23 12:13:09;;;;;;;2.72;0.60;;;16.20;89.40;;;;;;3555735;40;20066;-77
2021/06/23 12:15:36;;;;;;;4.32;1.35;;;16.20;88.70;;;;;;3554939;40;20351;-76
2021/06/23 12:18:05;;;;;;;5.47;0.75;;;16.20;88.50;;;;;;3554788;40;20037;-76
2021/06/23 12:20:32;;;;;;;4.90;0.57;;;16.20;88.40;;;;;;3554433;40;20040;-76
2021/06/23 12:23:00;;;;;;;5.03;0.80;;;16.20;89.30;;;;;;3555676;40;20069;-77
2021/06/23 12:25:29;;;;;;;4.35;1.10;;;16.30;89.40;;;;;;3546667;40;20042;-76
2021/06/23 12:27:56;;;;;;;9.35;0.88;;;16.30;88.90;;;;;;3554758;40;20034;-77
2021/06/23 12:30:26;;;;;;;5.68;0.60;;;16.40;89.40;;;;;;3555716;40;20049;-77
2021/06/23 12:32:53;;;;;;;6.88;0.85;;;16.50;89.20;;;;;;3555820;40;20053;-76
2021/06/23 12:35:23;;;;;;;5.28;0.73;;;16.50;88.60;;;;;;3555759;40;20045;-76
2021/06/23 12:37:49;;;;;;;2.65;1.10;;;16.40;87.60;;;;;;3555622;40;20041;-76
2021/06/23 12:40:15;;;;;;;4.65;1.05;;;16.40;88.40;;;;;;3555629;40;20041;-77
2021/06/23 12:42:41;;;;;;;6.18;0.73;;;16.40;88.60;;;;;;3555854;40;20046;-77
2021/06/23 12:45:07;;;;;;;6.72;1.30;;;16.50;88.80;;;;;;3555443;40;20068;-76
2021/06/23 12:47:34;;;;;;;9.63;1.02;;;16.40;88.50;;;;;;3555550;40;20041;-77
2021/06/23 12:49:59;;;;;;;4.93;0.88;;;16.40;88.90;;;;;;3555724;40;20057;-77
2021/06/23 12:52:25;;;;;;;3.90;1.42;;;16.50;89.40;;;;;;3555695;40;20685;-77
2021/06/23 12:54:51;;;;;;;4.00;0.88;;;16.60;88.80;;;;;;3555209;40;20041;-77
2021/06/23 12:57:17;;;;;;;5.10;0.50;;;16.60;88.20;;;;;;3546416;40;20056;-77
2021/06/23 12:59:44;;;;;;;5.45;1.52;;;16.70;89.00;;;;;;3556033;40;20123;-77
2021/06/23 13:02:10;;;;;;;5.68;1.63;;;16.70;87.90;;;;;;3555665;40;20038;-77
2021/06/23 13:04:35;;;;;;;5.95;1.83;;;16.70;87.80;;;;;;3554867;40;20442;-77
2021/06/23 13:07:01;;;;;;;5.65;1.02;;;16.70;87.80;;;;;;3555347;40;20049;-77
2021/06/23 13:09:50;;;;;;;5.88;1.08;;;16.70;87.50;;;;;;3542630;40;20331;-77
2021/06/23 13:12:16;;;;;;;6.65;0.55;;;16.60;88.70;;;;;;3557108;40;20040;-77
2021/06/23 13:14:42;;;;;;;3.45;0.80;;;16.70;88.00;;;;;;3556405;40;20053;-77